FW3210 Weather Reports


Display with metric or nautical units.
time (UTC)temp
F
wind
direction
speed
MPH
gust
MPH
rain 1hr
in
rain 24hr
in
rain mn
in
humidity
%
barometer
mb
20210728095417 67 337 0.0 0.0 0.00 0.06 0.00 100 1018.4
20210728095318 67 320 0.0 0.0 0.00 0.06 0.00 100 1018.4
20210728095217 67 39 0.0 0.0 0.00 0.06 0.00 100 1018.4
20210728095119 67 38 0.0 0.0 0.00 0.06 0.00 100 1018.4
20210728094120 66 5 2.0 5.0 0.00 0.06 0.00 99 1018.4
20210728093119 67 360 0.0 0.0 0.00 0.06 0.00 100 1018.4
20210728093018 67 355 3.0 5.0 0.00 0.06 0.00 100 1018.4
20210728092918 67 352 3.0 5.0 0.00 0.06 0.00 100 1018.4
20210728092819 66 351 3.0 5.0 0.00 0.06 0.00 99 1018.4
20210728092719 67 353 3.0 8.0 0.00 0.06 0.00 100 1018.4
20210728092618 67 14 1.0 7.0 0.00 0.06 0.00 100 1018.4
20210728092519 66 12 0.0 0.0 0.00 0.06 0.00 99 1018.4
20210728092418 67 6 0.0 3.0 0.00 0.06 0.00 100 1018.4
20210728092318 66 2 1.0 3.0 0.00 0.06 0.00 99 1018.4
20210728092218 67 324 2.0 3.0 0.00 0.06 0.00 100 1018.4
20210728092119 66 321 2.0 3.0 0.00 0.06 0.00 99 1018.4
20210728092017 67 321 2.0 3.0 0.00 0.06 0.00 100 1018.4
20210728091916 66 321 2.0 3.0 0.00 0.06 0.00 99 1018.4
20210728091818 66 321 2.0 3.0 0.00 0.06 0.00 99 1018.4
20210728091719 66 321 2.0 3.0 0.00 0.06 0.00 99 1018.4
20210728090817 67 325 0.0 2.0 0.00 0.06 0.00 100 1018.4
20210728090718 67 353 3.0 8.0 0.00 0.06 0.00 100 1018.4
20210728085817 67 336 0.0 0.0 0.00 0.06 0.00 100 1018.4
20210728085719 66 337 0.0 0.0 0.00 0.06 0.00 99 1018.4
20210728085617 67 338 0.0 0.0 0.00 0.06 0.00 100 1018.4
20210728085517 67 337 0.0 0.0 0.00 0.06 0.00 100 1018.4
20210728085417 66 337 0.0 0.0 0.00 0.06 0.00 99 1018.4
20210728085317 66 337 0.0 0.0 0.00 0.06 0.00 99 1018.4
20210728085218 66 337 0.0 0.0 0.00 0.06 0.00 99 1018.4
20210728085117 67 337 0.0 0.0 0.00 0.06 0.00 100 1018.4
20210728085018 66 337 0.0 0.0 0.00 0.06 0.00 99 1018.4
20210728084919 67 337 0.0 0.0 0.00 0.06 0.00 100 1018.4
20210728084819 67 342 0.0 0.0 0.00 0.06 0.00 100 1018.4
20210728084719 66 343 0.0 0.0 0.00 0.06 0.00 99 1018.4
20210728083717 66 315 0.0 0.0 0.00 0.06 0.00 99 1018.4
20210728083618 67 315 0.0 0.0 0.00 0.06 0.00 100 1018.4
20210728083518 67 315 0.0 0.0 0.00 0.06 0.00 100 1018.4
20210728083418 67 315 0.0 0.0 0.00 0.06 0.00 100 1018.4
20210728083318 66 315 0.0 0.0 0.00 0.06 0.00 99 1018.4
20210728083218 67 315 0.0 0.0 0.00 0.06 0.00 100 1018.4
20210728082217 67 315 0.0 0.0 0.00 0.06 0.00 100 1018.4
20210728082117 66 315 0.0 0.0 0.00 0.06 0.00 99 1018.4
20210728082019 67 315 0.0 0.0 0.00 0.06 0.00 100 1018.6
20210728081918 67 315 0.0 0.0 0.00 0.06 0.00 100 1018.8
20210728081817 66 315 0.0 0.0 0.00 0.06 0.00 99 1018.8
20210728080819 67 360 0.0 0.0 0.00 0.06 0.00 100 1018.4
20210728080717 67 360 0.0 0.0 0.00 0.06 0.00 99 1018.4
20210728080617 68 360 0.0 0.0 0.00 0.06 0.00 100 1018.4
20210728080517 67 1 0.0 0.0 0.00 0.06 0.00 99 1018.4
20210728080418 68 3 1.0 4.0 0.00 0.06 0.00 100 1018.4
20210728075517 68 18 2.0 5.0 0.00 0.06 0.00 100 1018.8
20210728075418 68 3 0.0 1.0 0.00 0.06 0.00 100 1018.8
20210728074517 68 337 0.0 4.0 0.00 0.06 0.00 100 1018.8
20210728074418 68 352 2.0 4.0 0.00 0.06 0.00 100 1018.8
20210728074319 68 360 3.0 4.0 0.00 0.06 0.00 100 1018.8
20210728074220 68 359 2.0 3.0 0.00 0.06 0.00 100 1018.8
20210728074117 68 354 2.0 3.0 0.00 0.06 0.00 100 1018.8
20210728074018 68 20 0.0 3.0 0.00 0.06 0.00 100 1018.8
20210728073917 67 27 0.0 0.0 0.00 0.06 0.00 99 1018.8
20210728073819 68 27 0.0 0.0 0.00 0.06 0.00 100 1018.8
20210728073718 68 25 0.0 0.0 0.00 0.06 0.00 100 1018.8
20210728073618 68 22 2.0 6.0 0.00 0.06 0.00 100 1018.8
20210728073518 68 1 0.0 0.0 0.00 0.06 0.00 100 1018.8
20210728073419 68 1 0.0 0.0 0.00 0.06 0.00 100 1018.8
20210728072517 67 360 0.0 0.0 0.00 0.06 0.00 99 1018.8
20210728072417 67 360 0.0 0.0 0.00 0.06 0.00 99 1018.8
20210728072318 68 360 0.0 0.0 0.00 0.06 0.00 100 1018.8
20210728072218 67 360 0.0 0.0 0.00 0.06 0.00 99 1018.8
20210728072118 68 360 0.0 0.0 0.00 0.06 0.00 100 1018.8
20210728072018 67 360 0.0 0.0 0.00 0.06 0.00 99 1019.1
20210728071917 67 360 0.0 0.0 0.00 0.06 0.00 99 1019.1
20210728071818 67 360 0.0 0.0 0.00 0.06 0.00 99 1019.1
20210728071719 68 360 0.0 0.0 0.00 0.06 0.00 100 1019.1
20210728071618 67 360 0.0 0.0 0.00 0.06 0.00 99 1019.1
20210728071516 67 360 0.0 0.0 0.00 0.06 0.00 99 1019.1
20210728071419 67 360 0.0 0.0 0.00 0.06 0.00 99 1019.1
20210728071318 68 360 0.0 0.0 0.00 0.06 0.00 100 1019.1
20210728071217 68 360 0.0 0.0 0.00 0.06 0.00 100 1019.1
20210728071119 68 52 0.0 0.0 0.00 0.06 0.00 100 1019.0
20210728070118 68 112 0.0 0.0 0.00 0.06 0.00 100 1018.8
20210728070019 68 112 0.0 0.0 0.00 0.06 0.00 100 1018.8
20210728065919 68 112 0.0 0.0 0.00 0.06 0.00 100 1018.8
20210728065816 68 112 0.0 0.0 0.00 0.06 0.00 100 1018.8
20210728065717 68 91 0.0 0.0 0.00 0.06 0.00 100 1018.8
20210728065617 67 67 0.0 0.0 0.00 0.06 0.00 99 1018.8
20210728065516 67 67 0.0 0.0 0.00 0.06 0.00 99 1018.8
20210728065417 68 67 0.0 0.0 0.00 0.06 0.00 100 1018.8
20210728065319 68 46 0.0 0.0 0.00 0.06 0.00 100 1018.8
20210728065223 67 45 0.0 0.0 0.00 0.06 0.00 99 1018.8
20210728065116 67 45 0.0 0.0 0.00 0.06 0.00 99 1018.8
20210728065018 67 45 0.0 0.0 0.00 0.06 0.00 99 1018.8
20210728064917 68 45 0.0 0.0 0.00 0.06 0.00 100 1018.8
20210728064818 68 45 0.0 0.0 0.00 0.06 0.00 100 1018.8
20210728064717 68 45 0.0 0.0 0.00 0.06 0.00 100 1018.8
20210728064620 69 45 0.0 0.0 0.00 0.06 0.00 100 1018.8
20210728064519 68 45 0.0 0.0 0.00 0.06 0.00 99 1018.8
20210728064419 69 45 0.0 0.0 0.00 0.06 0.00 100 1018.8
20210728064316 68 45 0.0 0.0 0.00 0.06 0.00 99 1018.8
20210728064217 68 45 0.0 0.0 0.00 0.06 0.00 100 1018.8
20210728064119 67 45 0.0 0.0 0.00 0.06 0.00 99 1018.8
20210728064016 67 45 0.0 0.0 0.00 0.06 0.00 99 1018.8
20210728063918 67 45 0.0 0.0 0.00 0.06 0.00 99 1018.8
20210728062919 68 225 0.0 0.0 0.00 0.06 0.00 100 1018.8
20210728062819 68 225 0.0 0.0 0.00 0.06 0.00 99 1018.8
20210728062717 68 225 0.0 0.0 0.00 0.06 0.00 99 1018.8
20210728062618 69 225 0.0 0.0 0.00 0.06 0.00 100 1018.8
20210728062518 69 225 0.0 0.0 0.00 0.06 0.00 100 1018.8
20210728062416 69 225 0.0 0.0 0.00 0.06 0.00 100 1018.8
20210728062317 68 225 0.0 0.0 0.00 0.06 0.00 99 1018.8
20210728062217 68 225 0.0 0.0 0.00 0.06 0.00 99 1018.8
20210728062120 69 225 0.0 0.0 0.00 0.06 0.00 100 1018.8
20210728062018 69 271 0.0 0.0 0.00 0.06 0.00 100 1018.8
20210728061919 68 353 0.0 0.0 0.00 0.06 0.00 99 1018.8
20210728061017 69 354 0.0 0.0 0.00 0.06 0.00 100 1018.4
20210728060918 69 316 0.0 0.0 0.00 0.06 0.00 100 1018.4
20210728060819 69 315 0.0 0.0 0.00 0.06 0.00 100 1018.4
20210728060718 69 359 0.0 0.0 0.00 0.06 0.00 100 1018.4
20210728060617 69 22 0.0 0.0 0.00 0.06 0.00 100 1018.4
20210728060518 69 23 0.0 0.0 0.00 0.06 0.00 100 1018.4
20210728060417 69 3 0.0 0.0 0.00 0.06 0.00 100 1018.4
20210728060320 69 360 0.0 0.0 0.00 0.06 0.00 100 1018.4
20210728055418 69 296 0.0 0.0 0.00 0.06 0.00 100 1018.0
20210728055318 69 306 0.0 0.0 0.00 0.06 0.00 100 1018.1
20210728055218 69 315 0.0 0.0 0.00 0.06 0.00 100 1018.1
20210728055118 69 273 0.0 0.0 0.00 0.06 0.00 100 1018.1
20210728055018 68 270 0.0 0.0 0.00 0.06 0.00 99 1018.1
20210728054917 69 270 0.0 0.0 0.00 0.06 0.00 100 1018.1
20210728053917 68 63 3.0 5.0 0.00 0.06 0.00 99 1017.7
20210728052918 68 337 0.0 0.0 0.00 0.06 0.00 99 1017.7
20210728052819 68 337 0.0 0.0 0.00 0.06 0.00 99 1017.7
20210728052717 68 337 0.0 0.0 0.00 0.06 0.00 99 1017.7
20210728052618 69 353 0.0 0.0 0.00 0.06 0.00 100 1017.7
20210728052519 69 112 0.0 0.0 0.00 0.06 0.00 100 1017.7
20210728052417 69 112 0.0 0.0 0.00 0.06 0.00 100 1017.7
20210728052317 68 112 0.0 0.0 0.00 0.06 0.00 99 1017.7
20210728052219 69 112 0.0 0.0 0.00 0.06 0.00 100 1017.7
20210728052117 68 112 0.0 0.0 0.00 0.06 0.00 99 1017.7
20210728052018 68 112 0.0 0.0 0.00 0.06 0.00 99 1017.7
20210728051017 68 335 0.0 0.0 0.00 0.06 0.00 99 1017.7
20210728050919 69 341 0.0 1.0 0.00 0.06 0.00 100 1017.7
20210728050817 69 357 1.0 4.0 0.00 0.06 0.00 100 1017.7
20210728045818 69 360 1.0 3.0 0.00 0.06 0.00 100 1018.1
20210728045719 69 360 3.0 5.0 0.00 0.06 0.00 100 1018.1
20210728044717 68 157 0.0 0.0 0.00 0.06 0.00 99 1018.1
20210728044618 69 159 0.0 0.0 0.00 0.06 0.00 100 1018.1
20210728043617 69 315 0.0 0.0 0.00 0.07 0.00 100 1018.1
20210728043517 69 315 0.0 0.0 0.00 0.07 0.00 100 1018.1
20210728043418 70 315 0.0 0.0 0.00 0.07 0.00 100 1018.1
20210728043318 69 315 0.0 0.0 0.00 0.07 0.00 99 1018.1
20210728043217 69 315 0.0 0.0 0.00 0.07 0.00 99 1018.1
20210728042218 70 315 0.0 0.0 0.00 0.07 0.00 100 1018.1
20210728042117 69 315 0.0 0.0 0.00 0.07 0.00 99 1018.1
20210728042020 70 315 0.0 0.0 0.00 0.07 0.00 100 1018.1
20210728041918 70 315 0.0 0.0 0.00 0.07 0.00 100 1018.1
20210728041817 69 315 0.0 0.0 0.00 0.07 0.00 99 1018.1
20210728041718 70 336 0.0 0.0 0.00 0.07 0.00 100 1018.1
20210728041619 69 360 0.0 0.0 0.00 0.07 0.00 99 1018.1
20210728041517 70 319 0.0 0.0 0.00 0.07 0.00 100 1018.1
20210728041416 69 270 0.0 0.0 0.00 0.07 0.00 99 1018.1
20210728041316 70 210 0.0 0.0 0.00 0.07 0.00 100 1018.2
20210728041217 69 112 0.0 0.0 0.00 0.07 0.00 99 1018.4
20210728041117 70 112 0.0 0.0 0.00 0.07 0.00 100 1018.4
20210728041017 69 112 0.0 0.0 0.00 0.07 0.00 99 1018.4
20210728040919 70 71 0.0 0.0 0.00 0.07 0.00 100 1018.4
20210728040817 70 7 0.0 0.0 0.00 0.07 0.00 100 1018.4
20210728040719 70 45 0.0 0.0 0.00 0.07 0.00 99 1018.4
20210728040618 71 45 0.0 0.0 0.00 0.07 0.00 100 1018.4
20210728040518 71 3 0.0 0.0 0.00 0.07 0.00 100 1018.4
20210728040417 70 360 0.0 0.0 0.00 0.07 0.00 99 1018.4
20210728040318 70 360 0.0 0.0 0.00 0.07 0.00 99 1018.4
20210728040217 71 360 0.0 0.0 0.00 0.07 0.00 100 1018.4
20210728040117 71 8 1.0 4.0 0.00 0.07 0.00 100 1018.4
20210728035116 70 337 0.0 0.0 0.00 0.07 0.07 99 1018.4
20210728034215 70 20 3.0 6.0 0.00 0.07 0.07 99 1018.4
20210728034119 71 24 1.0 6.0 0.00 0.07 0.07 100 1018.4
20210728034016 71 25 0.0 0.0 0.00 0.07 0.07 100 1018.4
20210728033916 71 30 4.0 8.0 0.00 0.07 0.07 100 1018.4
20210728033816 70 31 4.0 8.0 0.00 0.07 0.07 99 1018.4
20210728033717 70 31 4.0 8.0 0.00 0.07 0.07 99 1018.4
20210728032716 70 28 5.0 10.0 0.00 0.07 0.07 99 1018.4
20210728032617 71 27 5.0 10.0 0.00 0.07 0.07 100 1018.4
20210728032516 71 28 5.0 10.0 0.00 0.07 0.07 100 1018.4
20210728032417 71 16 4.0 6.0 0.00 0.07 0.07 100 1018.4
20210728032317 70 15 4.0 6.0 0.00 0.07 0.07 99 1018.4
20210728032216 70 15 4.0 6.0 0.00 0.07 0.07 99 1018.4
20210728032117 70 15 4.0 6.0 0.00 0.07 0.07 99 1018.4
20210728032016 71 3 3.0 7.0 0.00 0.07 0.07 100 1018.4
20210728031918 71 2 1.0 5.0 0.00 0.07 0.07 100 1018.4
20210728031816 70 2 0.0 0.0 0.00 0.07 0.07 99 1018.4
20210728031716 70 2 0.0 0.0 0.00 0.07 0.07 99 1018.4
20210728031616 70 2 0.0 0.0 0.00 0.07 0.07 99 1018.4
20210728031518 70 2 0.0 0.0 0.00 0.07 0.07 99 1018.4
20210728031416 70 2 0.0 0.0 0.00 0.07 0.07 99 1018.4
20210728031316 70 2 0.0 0.0 0.00 0.07 0.07 99 1018.4
20210728031218 70 2 0.0 0.0 0.00 0.07 0.07 99 1018.4
20210728031117 70 2 0.0 0.0 0.00 0.07 0.07 99 1018.4
20210728031017 70 2 0.0 0.0 0.00 0.07 0.07 99 1018.4
20210728030917 71 33 0.0 4.0 0.00 0.07 0.07 100 1018.4
20210728025916 69 357 0.0 0.0 0.00 0.07 0.07 99 1018.1
20210728025817 70 356 0.0 0.0 0.00 0.07 0.07 100 1018.0
20210728025716 70 355 0.0 4.0 0.00 0.07 0.07 100 1018.1
20210728024717 69 270 0.0 0.0 0.00 0.07 0.07 99 1018.1
20210728024617 69 270 0.0 0.0 0.00 0.07 0.07 99 1018.0
20210728024516 70 273 0.0 0.0 0.00 0.07 0.07 100 1018.0
20210728024416 70 45 0.0 0.0 0.00 0.07 0.07 100 1018.1
20210728024316 69 45 0.0 0.0 0.00 0.07 0.07 99 1018.1
20210728024217 69 45 0.0 0.0 0.00 0.07 0.07 99 1018.1
20210728024117 70 45 0.0 0.0 0.00 0.07 0.07 100 1018.1
20210728024016 71 45 0.0 0.0 0.00 0.07 0.07 100 1018.1
20210728023935 71 45 0.0 0.0 0.00 0.07 0.07 100 1018.0
20210728023815 71 45 0.0 0.0 0.00 0.07 0.07 100 1018.1
20210728023716 70 45 0.0 0.0 0.00 0.07 0.07 99 1018.1
20210728022815 71 42 0.0 0.0 0.00 0.07 0.07 100 1017.7
20210728022717 71 45 0.0 0.0 0.00 0.07 0.07 100 1017.7
20210728021716 70 45 0.0 0.0 0.00 0.07 0.07 99 1017.7
20210728021616 70 45 0.0 0.0 0.00 0.07 0.07 99 1017.7
20210728021516 70 45 0.0 0.0 0.00 0.07 0.07 99 1017.7
20210728021416 71 44 0.0 0.0 0.00 0.07 0.07 100 1017.7
20210728021315 72 88 0.0 0.0 0.00 0.07 0.07 99 1017.7
20210728021217 71 90 0.0 0.0 0.00 0.07 0.07 98 1017.7
20210728021118 71 90 0.0 0.0 0.00 0.07 0.07 98 1017.7
20210728021017 72 58 0.0 0.0 0.00 0.07 0.07 99 1017.7
20210728020916 71 57 0.0 0.0 0.00 0.07 0.07 99 1017.7
20210728015917 71 21 1.0 5.0 0.00 0.07 0.07 98 1017.7
20210728015818 72 360 4.0 8.0 0.00 0.07 0.07 99 1017.7
20210728014817 72 45 0.0 0.0 0.00 0.07 0.07 96 1017.3
20210728014717 72 45 0.0 0.0 0.00 0.07 0.07 96 1017.3
20210728014619 72 45 0.0 0.0 0.00 0.07 0.07 96 1017.3
20210728014516 73 45 0.0 0.0 0.00 0.07 0.07 97 1017.3
20210728014416 73 45 0.0 0.0 0.00 0.07 0.07 97 1017.3
20210728014315 72 45 0.0 0.0 0.00 0.07 0.07 96 1017.3
20210728014216 73 45 0.0 0.0 0.00 0.07 0.07 97 1017.3
20210728014117 72 45 0.0 0.0 0.00 0.07 0.07 96 1017.3
20210728014018 72 45 0.0 0.0 0.00 0.07 0.07 96 1017.3
20210728013916 73 45 0.0 0.0 0.00 0.07 0.07 97 1017.3
20210728013815 72 45 0.0 0.0 0.00 0.07 0.07 96 1017.3
20210728013716 73 44 0.0 0.0 0.00 0.07 0.07 97 1017.3
20210728013616 73 9 0.0 0.0 0.00 0.07 0.07 96 1017.3
20210728012617 72 337 0.0 0.0 0.00 0.07 0.07 95 1017.3
20210728012517 72 337 0.0 0.0 0.00 0.07 0.07 95 1017.3
20210728012417 72 337 0.0 0.0 0.00 0.07 0.07 95 1017.3
20210728012316 73 337 0.0 0.0 0.00 0.07 0.07 96 1017.3
20210728012217 72 337 0.0 0.0 0.00 0.07 0.07 96 1017.3
20210728012119 72 337 0.0 0.0 0.00 0.07 0.07 96 1017.3
20210728012016 72 337 0.0 0.0 0.00 0.07 0.07 96 1017.0
20210728011918 73 337 0.0 0.0 0.00 0.07 0.07 97 1017.0
20210728011818 73 337 0.0 0.0 0.00 0.07 0.07 97 1017.0
20210728011716 73 337 0.0 0.0 0.00 0.07 0.07 97 1017.0
20210728011618 72 337 0.0 0.0 0.00 0.07 0.07 96 1017.0
20210728011518 73 1 0.0 2.0 0.00 0.07 0.07 97 1017.0
20210728010616 73 360 0.0 0.0 0.00 0.07 0.07 98 1017.0
20210728005616 73 22 3.0 6.0 0.00 0.07 0.07 97 1016.6
20210728005518 72 22 3.0 6.0 0.00 0.07 0.07 96 1016.6
20210728005415 72 22 3.0 8.0 0.00 0.07 0.07 96 1016.6
20210728005316 73 35 4.0 8.0 0.00 0.07 0.07 99 1016.6
20210728005217 73 37 4.0 7.0 0.00 0.07 0.07 100 1016.6
20210728005116 73 45 2.0 7.0 0.00 0.07 0.07 99 1016.6
20210728005015 73 33 0.0 6.0 0.00 0.07 0.07 100 1016.8
20210728004918 73 43 0.0 0.0 0.00 0.07 0.07 100 1017.0
20210728003916 73 22 0.0 0.0 0.00 0.07 0.07 99 1017.0
20210728003816 73 22 0.0 0.0 0.00 0.07 0.07 99 1017.0
20210728003719 73 22 0.0 0.0 0.00 0.07 0.07 99 1017.0
20210728003618 73 22 0.0 0.0 0.00 0.07 0.07 99 1017.0
20210728003517 73 22 0.0 0.0 0.00 0.07 0.07 99 1017.0
20210728003417 74 13 0.0 0.0 0.00 0.07 0.07 100 1017.0
20210728003315 73 4 0.0 0.0 0.00 0.07 0.07 99 1017.0
20210728003217 73 4 0.0 0.0 0.00 0.07 0.07 99 1017.0
20210728003119 74 1 0.0 0.0 0.00 0.07 0.07 99 1017.0
20210728002117 75 8 0.0 0.0 0.00 0.07 0.07 96 1016.2
20210728002018 76 4 0.0 0.0 0.00 0.07 0.07 97 1016.2
20210728001916 75 360 0.0 0.0 0.00 0.07 0.07 97 1016.2
20210728001817 76 180 0.0 0.0 0.00 0.07 0.07 98 1016.2
20210728001718 76 180 0.0 0.0 0.00 0.07 0.07 97 1016.2
20210728000717 76 180 0.0 0.0 0.00 0.07 0.07 95 1015.9
20210728000616 76 180 0.0 0.0 0.00 0.07 0.07 95 1015.9
20210727235715 77 180 0.0 0.0 0.00 0.07 0.07 95 1016.2
20210727235617 78 180 0.0 0.0 0.00 0.07 0.07 96 1016.2
20210727235517 78 180 0.0 0.0 0.00 0.07 0.07 96 1016.3
20210727235415 78 180 0.0 0.0 0.00 0.07 0.07 96 1016.2
20210727235316 78 180 0.0 0.0 0.00 0.07 0.07 96 1016.2
20210727235217 78 180 0.0 0.0 0.00 0.07 0.07 95 1016.2
20210727235117 77 180 0.0 0.0 0.00 0.07 0.07 94 1016.2
20210727234117 78 180 0.0 0.0 0.00 0.07 0.07 94 1016.2
20210727234018 79 180 0.0 0.0 0.00 0.07 0.07 95 1015.5
20210727233916 78 180 0.0 0.0 0.00 0.07 0.07 94 1015.5
20210727233816 79 180 0.0 0.0 0.00 0.07 0.07 95 1015.5
20210727233715 79 180 0.0 0.0 0.00 0.07 0.07 95 1015.5
20210727233616 78 180 0.0 0.0 0.00 0.07 0.07 94 1015.5
20210727233516 79 180 0.0 0.0 0.00 0.07 0.07 95 1015.5
20210727233415 78 180 0.0 0.0 0.00 0.07 0.07 94 1015.5
20210727232417 79 180 0.0 0.0 0.00 0.07 0.07 95 1015.5
20210727232318 80 180 0.0 0.0 0.00 0.07 0.07 96 1015.5
20210727232217 79 180 0.0 0.0 0.00 0.07 0.07 96 1015.5
20210727232118 80 180 0.0 0.0 0.00 0.07 0.07 97 1015.2
20210727232016 79 179 0.0 0.0 0.00 0.07 0.07 96 1015.2
20210727231917 79 135 0.0 0.0 0.00 0.07 0.07 97 1015.2
20210727231818 79 135 0.0 0.0 0.00 0.07 0.07 97 1015.2
20210727231717 79 135 0.0 0.0 0.00 0.07 0.07 97 1015.2
20210727231618 79 135 0.0 0.0 0.00 0.07 0.07 97 1015.2
20210727230617 79 202 0.0 0.0 0.00 0.07 0.07 99 1015.2
20210727230516 78 202 0.0 0.0 0.00 0.07 0.07 98 1015.2
20210727230417 78 202 0.0 0.0 0.00 0.07 0.07 98 1015.2
20210727230316 79 202 0.0 0.0 0.00 0.07 0.07 98 1015.2
20210727230218 78 202 0.0 0.0 0.00 0.07 0.07 97 1015.2
20210727230116 79 202 0.0 0.0 0.00 0.07 0.07 98 1015.2
20210727230017 79 224 0.0 0.0 0.00 0.07 0.07 99 1015.2
20210727225918 78 225 0.0 0.0 0.00 0.07 0.07 99 1015.2
20210727225817 78 225 0.0 0.0 0.00 0.08 0.07 99 1015.2
20210727224816 77 45 0.0 0.0 0.00 0.08 0.07 99 1015.5
20210727224717 78 45 0.0 0.0 0.00 0.08 0.07 100 1015.5
20210727224619 77 45 0.0 0.0 0.00 0.08 0.07 99 1015.5
20210727224516 77 45 0.0 0.0 0.00 0.08 0.07 100 1015.5
20210727224419 76 45 0.0 0.0 0.00 0.08 0.07 99 1015.5
20210727223516 75 177 0.0 0.0 0.00 0.08 0.07 99 1016.3
20210727223418 74 180 0.0 0.0 0.00 0.08 0.07 99 1016.2
20210727223317 74 180 0.0 0.0 0.00 0.08 0.07 99 1016.2
20210727222416 74 180 0.0 0.0 0.00 0.09 0.07 99 1016.2
20210727222316 75 180 0.0 0.0 0.00 0.09 0.07 100 1016.3
20210727222218 74 180 0.0 0.0 0.00 0.09 0.07 99 1016.2
20210727222116 75 69 0.0 0.0 0.00 0.09 0.07 100 1016.2
20210727221117 74 45 0.0 0.0 0.00 0.14 0.07 99 1016.2
20210727221018 75 45 0.0 0.0 0.00 0.14 0.07 100 1016.2
20210727220915 75 35 0.0 0.0 0.00 0.15 0.07 100 1016.2
20210727220818 75 22 0.0 0.0 0.00 0.16 0.07 100 1016.2
20210727220716 74 21 0.0 0.0 0.00 0.19 0.07 99 1016.2
20210727220616 74 228 0.0 0.0 0.00 0.22 0.07 99 1016.3
20210727220516 74 225 0.0 0.0 0.00 0.25 0.07 99 1016.2
20210727220417 74 225 0.0 0.0 0.00 0.25 0.07 100 1016.2
20210727220317 73 225 0.0 0.0 0.00 0.25 0.07 99 1016.2
20210727220216 74 225 0.0 0.0 0.00 0.25 0.07 100 1016.2
20210727220115 74 225 0.0 0.0 0.00 0.25 0.07 100 1016.2
20210727220018 73 225 0.0 0.0 0.00 0.32 0.07 99 1016.2
20210727215916 74 225 0.0 0.0 0.00 0.32 0.07 100 1016.2
20210727215817 74 225 0.0 0.0 0.00 0.32 0.07 100 1016.3
20210727215718 73 225 0.0 0.0 0.00 0.32 0.07 99 1016.2
20210727215615 74 225 0.0 0.0 0.00 0.33 0.07 100 1016.2
20210727215516 74 225 0.0 0.0 0.00 0.33 0.07 100 1016.3
20210727215418 73 225 0.0 0.0 0.00 0.33 0.07 99 1016.2
20210727215317 74 225 0.0 0.0 0.00 0.34 0.07 100 1016.2
20210727215216 74 225 0.0 0.0 0.00 0.34 0.07 100 1016.2
20210727215117 74 225 0.0 0.0 0.00 0.34 0.07 100 1016.2
20210727214117 74 202 0.0 0.0 0.02 0.36 0.07 99 1016.6
20210727213216 74 45 0.0 0.0 0.02 0.37 0.07 100 1016.2
20210727213116 74 45 0.0 0.0 0.02 0.37 0.07 100 1016.2
20210727213017 74 45 0.0 0.0 0.02 0.37 0.07 99 1016.6
20210727212916 73 45 0.0 0.0 0.02 0.37 0.07 99 1016.6
20210727212818 74 45 0.0 0.0 0.02 0.37 0.07 100 1016.6
20210727212716 74 23 0.0 0.0 0.02 0.37 0.07 99 1016.6
20210727212615 73 360 0.0 0.0 0.02 0.37 0.07 97 1016.6
20210727212516 73 360 0.0 0.0 0.02 0.37 0.07 97 1016.6
20210727212416 73 360 0.0 0.0 0.02 0.37 0.07 97 1016.6
20210727212318 73 360 0.0 0.0 0.02 0.37 0.07 97 1016.6
20210727212218 73 360 0.0 0.0 0.02 0.37 0.07 97 1016.6
20210727212117 74 360 0.0 0.0 0.02 0.37 0.07 98 1016.6
20210727212016 73 360 0.0 0.0 0.02 0.37 0.07 97 1016.6
20210727211918 73 360 0.0 0.0 0.02 0.37 0.07 97 1016.6
20210727211817 73 360 0.0 0.0 0.02 0.37 0.07 97 1016.6
20210727211716 73 360 0.0 0.0 0.02 0.37 0.07 97 1016.6
20210727211619 74 360 0.0 0.0 0.02 0.37 0.07 98 1016.6
20210727210616 73 360 0.0 0.0 0.02 0.37 0.07 98 1016.6
20210727205616 74 293 0.0 0.0 0.02 0.37 0.07 96 1017.0
20210727205516 73 292 0.0 0.0 0.02 0.37 0.07 95 1017.0
20210727204518 73 292 0.0 0.0 0.02 0.36 0.06 95 1016.6
20210727204415 73 292 0.0 0.0 0.02 0.36 0.06 95 1016.6
20210727203417 72 315 0.0 0.0 0.01 0.35 0.05 91 1016.2
20210727203318 72 315 0.0 0.0 0.01 0.35 0.05 91 1016.2
20210727203216 72 315 0.0 0.0 0.01 0.35 0.05 91 1016.2
20210727202218 73 286 0.0 0.0 0.02 0.35 0.05 91 1016.2
20210727202116 73 286 0.0 0.0 0.04 0.35 0.05 91 1016.2
20210727202016 73 286 0.0 0.0 0.04 0.35 0.05 91 1016.2
20210727201916 74 286 0.0 0.0 0.04 0.35 0.05 92 1016.3
20210727200917 75 180 0.0 0.0 0.04 0.35 0.05 92 1016.2
20210727200817 75 180 0.0 0.0 0.04 0.35 0.05 92 1016.2
20210727200716 75 180 0.0 0.0 0.04 0.35 0.05 92 1016.2
20210727200616 74 180 0.0 0.0 0.04 0.35 0.05 92 1016.2
20210727200518 75 181 0.0 0.0 0.04 0.35 0.05 94 1016.2
20210727200418 75 170 0.0 0.0 0.04 0.35 0.05 94 1016.2
20210727200317 75 156 0.0 0.0 0.04 0.35 0.05 95 1016.2
20210727200217 76 91 0.0 0.0 0.04 0.35 0.05 94 1016.2
20210727200115 75 10 0.0 0.0 0.04 0.35 0.05 91 1016.2
20210727200017 75 10 0.0 0.0 0.04 0.35 0.05 91 1016.2
20210727195917 75 10 0.0 0.0 0.04 0.35 0.05 91 1016.2
20210727195816 75 7 0.0 0.0 0.04 0.35 0.05 91 1016.2
20210727195717 76 277 0.0 0.0 0.04 0.35 0.05 90 1016.2
20210727195618 75 275 0.0 0.0 0.04 0.35 0.05 89 1016.2
20210727194616 76 315 0.0 0.0 0.03 0.34 0.04 86 1016.2
20210727194517 76 315 0.0 0.0 0.03 0.34 0.04 85 1016.2
20210727194416 75 315 0.0 0.0 0.03 0.34 0.04 85 1016.3
20210727194317 76 359 0.0 0.0 0.03 0.34 0.04 85 1015.9
20210727194216 76 360 0.0 0.0 0.03 0.34 0.04 84 1015.9
20210727194117 76 360 0.0 0.0 0.03 0.34 0.04 84 1015.9
20210727194018 76 360 0.0 0.0 0.03 0.34 0.04 84 1015.9
20210727193918 77 360 0.0 0.0 0.03 0.34 0.04 85 1015.9
20210727193815 77 180 0.0 0.0 0.03 0.34 0.04 83 1015.9
20210727193717 76 180 0.0 0.0 0.03 0.34 0.04 82 1015.9
20210727193616 77 180 0.0 0.0 0.03 0.34 0.04 83 1015.9
20210727192616 80 270 0.0 0.0 0.03 0.34 0.04 72 1014.8
20210727192519 81 270 0.0 0.0 0.03 0.34 0.04 72 1014.8
20210727192418 81 247 0.0 0.0 0.03 0.34 0.03 72 1014.8
20210727192317 81 225 0.0 0.0 0.02 0.33 0.03 71 1014.8
20210727192217 82 0 0.0 0.0 0.02 0.33 0.01 70 1014.8
20210727191216 84 67 0.0 0.0 0.00 0.31 0.01 67 1014.6
20210727191116 84 90 0.0 0.0 0.00 0.31 0.01 65 1014.5
20210727191018 84 90 0.0 0.0 0.00 0.31 0.01 65 1014.5
20210727190916 84 90 0.0 0.0 0.00 0.31 0.01 65 1014.5
20210727190815 85 90 0.0 0.0 0.00 0.31 0.01 66 1014.5
20210727190718 84 90 0.0 0.0 0.00 0.31 0.01 65 1014.5
20210727190617 84 90 0.0 0.0 0.00 0.31 0.01 65 1014.5
20210727190518 85 90 0.0 0.0 0.00 0.31 0.01 65 1014.5
20210727190416 84 90 0.0 0.0 0.00 0.31 0.01 64 1014.5
20210727185416 88 203 2.0 4.0 0.00 0.31 0.01 61 1014.1
20210727185315 88 180 1.0 4.0 0.00 0.31 0.01 60 1014.1
20210727185216 88 180 1.0 4.0 0.00 0.31 0.01 60 1014.1
20210727184217 90 225 5.0 6.0 0.00 0.31 0.01 61 1014.1
20210727184118 89 225 5.0 6.0 0.00 0.31 0.01 60 1014.1
20210727184017 89 203 0.0 6.0 0.00 0.31 0.01 62 1014.4
20210727183917 89 190 0.0 0.0 0.00 0.31 0.01 61 1014.5
20210727183816 89 124 0.0 0.0 0.00 0.31 0.01 61 1014.5
20210727183716 89 320 0.0 0.0 0.00 0.31 0.01 62 1014.5
20210727183617 89 315 0.0 0.0 0.00 0.31 0.01 61 1014.5
20210727183516 88 249 1.0 5.0 0.00 0.31 0.01 61 1014.5
20210727183415 87 185 2.0 5.0 0.00 0.31 0.01 61 1014.5
20210727183317 88 313 0.0 0.0 0.00 0.31 0.01 62 1014.5
20210727183216 88 324 0.0 0.0 0.00 0.31 0.01 61 1014.5
20210727182218 86 135 0.0 0.0 0.00 0.31 0.01 65 1014.8
20210727182116 86 135 0.0 0.0 0.00 0.31 0.01 66 1014.8
20210727182016 85 135 0.0 0.0 0.00 0.31 0.01 66 1014.8
20210727181917 84 120 0.0 0.0 0.00 0.31 0.01 67 1014.8
20210727181815 85 103 0.0 0.0 0.00 0.31 0.01 68 1014.8
20210727181717 85 78 0.0 0.0 0.00 0.31 0.01 68 1014.8
20210727181616 84 67 0.0 0.0 0.00 0.31 0.01 66 1014.8
20210727181517 84 67 0.0 0.0 0.00 0.31 0.01 66 1014.8
20210727181417 85 80 0.0 0.0 0.00 0.31 0.01 66 1014.8
20210727181317 84 93 0.0 0.0 0.00 0.31 0.01 65 1014.8
20210727181215 84 93 0.0 0.0 0.00 0.31 0.01 65 1014.8
20210727181116 84 93 0.0 0.0 0.00 0.31 0.01 65 1014.8
20210727181017 85 80 1.0 4.0 0.00 0.31 0.01 66 1015.0
20210727180919 86 117 0.0 3.0 0.00 0.31 0.01 65 1015.2
20210727180818 85 118 0.0 0.0 0.00 0.31 0.01 64 1015.2
20210727180717 85 121 0.0 0.0 0.00 0.31 0.01 64 1015.2
20210727180616 86 205 0.0 0.0 0.00 0.31 0.01 64 1015.2
20210727180516 87 123 0.0 0.0 0.00 0.31 0.01 63 1015.2
20210727180416 87 110 0.0 0.0 0.00 0.31 0.01 62 1015.2
20210727180318 86 110 0.0 0.0 0.00 0.31 0.01 61 1015.2
20210727180216 87 110 0.0 0.0 0.00 0.31 0.01 62 1015.2
20210727180116 86 110 0.0 0.0 0.00 0.31 0.01 61 1015.2
20210727180016 87 164 0.0 0.0 0.00 0.31 0.01 62 1015.0
20210727175917 86 202 0.0 0.0 0.00 0.31 0.01 62 1014.8
20210727175815 86 202 0.0 0.0 0.00 0.31 0.01 62 1014.8
20210727174815 88 123 1.0 4.0 0.00 0.31 0.01 58 1014.8
20210727174717 88 123 1.0 4.0 0.00 0.31 0.01 58 1014.8
20210727174618 88 127 1.0 4.0 0.00 0.31 0.01 58 1014.8
20210727174518 88 181 1.0 4.0 0.00 0.31 0.01 58 1014.8
20210727174417 88 180 2.0 4.0 0.00 0.31 0.01 58 1014.8
20210727173516 88 157 0.0 0.0 0.00 0.31 0.01 60 1015.2
20210727173417 88 157 0.0 0.0 0.00 0.31 0.01 60 1015.2
20210727173316 88 157 0.0 0.0 0.00 0.31 0.01 60 1015.2
20210727173217 88 134 0.0 0.0 0.00 0.31 0.01 60 1015.2
20210727173117 87 110 0.0 0.0 0.00 0.31 0.01 58 1015.2
20210727173015 88 108 0.0 0.0 0.00 0.31 0.01 59 1015.2
20210727172916 88 53 0.0 0.0 0.00 0.31 0.01 59 1015.2
20210727172817 88 45 0.0 0.0 0.00 0.31 0.01 59 1015.2
20210727171816 87 45 0.0 0.0 0.00 0.31 0.01 59 1015.2
20210727171715 87 45 0.0 0.0 0.00 0.31 0.01 59 1015.2
20210727171617 88 45 0.0 0.0 0.00 0.31 0.01 59 1015.2
20210727171518 87 45 0.0 0.0 0.00 0.31 0.01 58 1015.2
20210727171417 87 56 0.0 0.0 0.00 0.31 0.01 60 1015.2
20210727171316 87 54 0.0 0.0 0.00 0.31 0.01 60 1015.2
20210727171217 88 45 0.0 0.0 0.00 0.31 0.01 59 1015.5
20210727170216 86 180 0.0 0.0 0.00 0.31 0.01 65 1015.5
20210727170118 85 157 0.0 0.0 0.00 0.31 0.01 63 1015.7
20210727170016 84 133 0.0 0.0 0.00 0.31 0.01 61 1015.9
20210727165016 84 110 0.0 0.0 0.00 0.31 0.01 63 1016.0
20210727164917 83 93 0.0 0.0 0.00 0.31 0.01 63 1016.2
20210727164816 83 93 0.0 0.0 0.00 0.31 0.01 63 1016.2
20210727164717 83 97 0.0 0.0 0.00 0.31 0.01 63 1016.2
20210727164616 84 88 0.0 0.0 0.00 0.31 0.01 64 1016.2
20210727163617 83 48 3.0 6.0 0.00 0.31 0.01 66 1016.2
20210727163518 83 55 6.0 8.0 0.00 0.31 0.01 64 1016.2
20210727163416 82 56 6.0 8.0 0.00 0.31 0.01 63 1016.2
20210727163318 83 60 6.0 9.0 0.00 0.31 0.01 63 1016.2
20210727163219 83 60 5.0 9.0 0.00 0.31 0.01 64 1016.2
20210727163118 83 56 5.0 7.0 0.00 0.31 0.01 65 1016.2
20210727163016 83 50 5.0 9.0 0.00 0.31 0.01 65 1016.4
20210727162916 82 42 3.0 8.0 0.00 0.31 0.01 65 1016.6
20210727161917 81 34 3.0 7.0 0.00 0.31 0.01 67 1016.2
20210727161816 81 37 3.0 8.0 0.00 0.31 0.01 67 1016.3
20210727161717 81 45 7.0 8.0 0.00 0.31 0.01 66 1016.3
20210727161618 81 61 3.0 8.0 0.00 0.31 0.01 66 1016.2
20210727161518 82 46 5.0 10.0 0.00 0.31 0.01 67 1016.2
20210727160615 80 50 11.0 16.0 0.00 0.31 0.01 66 1016.2
20210727160518 80 50 11.0 16.0 0.00 0.31 0.01 66 1016.2
20210727160416 81 37 8.0 16.0 0.00 0.31 0.01 69 1016.2
20210727160317 81 42 3.0 10.0 0.00 0.31 0.01 70 1016.2
20210727160217 80 45 8.0 10.0 0.00 0.31 0.01 68 1016.2
20210727155216 81 8 5.0 7.0 0.00 0.31 0.01 68 1016.3
20210727155118 80 55 7.0 9.0 0.00 0.31 0.01 70 1016.6
20210727155016 80 55 7.0 9.0 0.00 0.31 0.01 70 1016.6
20210727154917 80 55 7.0 9.0 0.00 0.31 0.01 70 1016.6
20210727154815 81 61 5.0 9.0 0.00 0.31 0.01 71 1016.6
20210727153816 80 13 1.0 5.0 0.00 0.31 0.01 75 1016.6
20210727153715 79 7 0.0 0.0 0.00 0.31 0.01 75 1016.6
20210727152716 80 22 5.0 10.0 0.00 0.31 0.01 74 1016.6
20210727152618 79 34 6.0 10.0 0.00 0.31 0.01 73 1016.6
20210727151616 79 37 5.0 9.0 0.00 0.31 0.01 76 1016.2
20210727151517 79 41 5.0 8.0 0.00 0.31 0.01 76 1016.2
20210727150517 77 39 3.0 7.0 0.00 0.31 0.01 78 1016.2
20210727150416 78 39 4.0 9.0 0.00 0.31 0.01 78 1016.2
20210727150315 78 46 7.0 10.0 0.00 0.31 0.01 78 1016.3
20210727150217 78 53 6.0 10.0 0.00 0.31 0.01 78 1016.2
20210727145216 78 50 5.0 8.0 0.00 0.31 0.01 79 1016.6
20210727145116 77 9 3.0 6.0 0.00 0.31 0.01 78 1016.6
20210727145016 76 23 2.0 7.0 0.00 0.31 0.01 80 1016.6
20210727144917 77 25 2.0 7.0 0.00 0.31 0.01 80 1016.6
20210727144816 76 39 3.0 7.0 0.00 0.31 0.01 78 1016.6
20210727144716 77 48 5.0 10.0 0.00 0.31 0.01 80 1016.6
20210727144616 77 49 6.0 8.0 0.00 0.31 0.01 79 1016.6
20210727144517 76 37 5.0 7.0 0.00 0.31 0.01 79 1016.6
20210727144416 76 37 5.0 7.0 0.00 0.31 0.01 79 1016.6
20210727144318 76 37 5.0 7.0 0.00 0.31 0.01 79 1016.6
20210727144215 77 35 5.0 7.0 0.00 0.31 0.01 80 1016.6
20210727144118 76 40 5.0 7.0 0.00 0.31 0.01 80 1016.6
20210727144015 76 40 5.0 7.0 0.00 0.31 0.01 80 1016.6
20210727143915 77 35 3.0 7.0 0.00 0.31 0.01 80 1016.6
20210727143816 77 51 5.0 8.0 0.00 0.31 0.01 79 1016.6
20210727143715 76 53 5.0 8.0 0.00 0.31 0.01 77 1016.6
20210727143615 77 52 5.0 8.0 0.00 0.31 0.01 78 1016.6
20210727143516 77 49 6.0 10.0 0.00 0.31 0.01 78 1016.6
20210727143416 77 55 7.0 10.0 0.00 0.31 0.01 76 1016.6
20210727143316 78 51 7.0 10.0 0.00 0.31 0.01 76 1016.6
20210727143216 78 56 6.0 12.0 0.00 0.31 0.01 76 1016.6
20210727142315 77 84 0.0 0.0 0.00 0.31 0.01 84 1017.0
20210727142216 77 67 0.0 0.0 0.00 0.31 0.01 84 1017.0
20210727142115 77 89 0.0 0.0 0.00 0.31 0.01 84 1017.0
20210727142018 77 104 0.0 0.0 0.00 0.31 0.01 85 1017.0
20210727141115 75 42 4.0 10.0 0.00 0.31 0.01 86 1017.0
20210727141017 75 56 7.0 10.0 0.00 0.31 0.01 85 1017.0
20210727140917 75 36 6.0 9.0 0.00 0.31 0.01 85 1017.0
20210727140816 75 36 6.0 10.0 0.00 0.31 0.01 85 1017.0
20210727140715 75 18 1.0 6.0 0.00 0.31 0.01 88 1017.0
20210727140615 74 26 1.0 6.0 0.00 0.31 0.01 87 1017.0
20210727140516 74 44 6.0 8.0 0.00 0.31 0.01 86 1017.0
20210727140417 74 42 4.0 12.0 0.00 0.31 0.01 87 1017.2
20210727140318 73 22 0.0 3.0 0.00 0.31 0.01 87 1017.3
20210727140215 73 22 0.0 3.0 0.00 0.31 0.01 87 1017.3
20210727140116 73 22 0.0 3.0 0.00 0.31 0.01 87 1017.3
20210727140017 73 22 0.0 3.0 0.00 0.31 0.01 87 1017.3
20210727135915 74 31 3.0 7.0 0.00 0.31 0.01 87 1017.3
20210727135816 74 47 7.0 11.0 0.00 0.31 0.01 86 1017.3
20210727135716 74 12 4.0 9.0 0.00 0.31 0.01 86 1017.3
20210727135618 75 57 6.0 10.0 0.00 0.31 0.01 86 1017.3
20210727135516 75 27 7.0 11.0 0.00 0.31 0.01 86 1017.3
20210727135417 75 31 5.0 10.0 0.00 0.31 0.01 87 1017.3
20210727134416 73 14 6.0 10.0 0.00 0.31 0.01 92 1017.3
20210727134316 73 23 4.0 10.0 0.00 0.31 0.01 90 1017.3
20210727134215 73 29 7.0 12.0 0.00 0.31 0.01 90 1017.3
20210727133216 71 30 5.0 9.0 0.00 0.31 0.01 90 1017.0
20210727132218 72 54 6.0 11.0 0.00 0.31 0.01 88 1017.0
20210727132116 72 54 6.0 11.0 0.00 0.31 0.01 88 1017.0
20210727132016 73 54 6.0 11.0 0.00 0.31 0.01 89 1017.0
20210727131917 72 54 6.0 11.0 0.00 0.31 0.01 88 1017.0
20210727131816 73 51 7.0 12.0 0.00 0.31 0.01 90 1017.0
20210727131717 74 28 8.0 12.0 0.00 0.31 0.01 92 1017.0
20210727131616 73 3 1.0 5.0 0.00 0.31 0.01 91 1017.0
20210727131517 72 53 5.0 8.0 0.00 0.31 0.01 89 1017.0
20210727131416 73 48 6.0 11.0 0.00 0.31 0.01 91 1017.0
20210727131320 73 36 3.0 7.0 0.00 0.31 0.01 90 1017.0
20210727131216 73 40 5.0 8.0 0.00 0.31 0.01 89 1017.0
20210727131116 74 20 3.0 8.0 0.00 0.31 0.01 91 1017.0
20210727131018 74 35 4.0 8.0 0.00 0.31 0.01 90 1017.0
20210727130115 73 36 2.0 6.0 0.00 0.31 0.01 93 1017.0
20210727130016 72 40 4.0 5.0 0.00 0.31 0.01 92 1017.0
20210727125917 72 40 4.0 5.0 0.00 0.31 0.01 92 1017.0
20210727125817 72 40 4.0 5.0 0.00 0.31 0.01 92 1017.0
20210727125718 73 38 3.0 5.0 0.00 0.31 0.01 94 1017.0
20210727125617 73 4 3.0 7.0 0.00 0.31 0.01 94 1017.0
20210727125516 73 24 2.0 6.0 0.00 0.31 0.01 96 1017.0
20210727125415 73 12 3.0 7.0 0.00 0.31 0.01 96 1017.0
20210727125317 73 15 2.0 7.0 0.00 0.31 0.01 97 1017.0
20210727125217 73 10 2.0 7.0 0.00 0.31 0.01 97 1017.0
20210727125117 72 19 3.0 6.0 0.00 0.31 0.01 97 1017.0
20210727125016 72 59 4.0 5.0 0.00 0.31 0.01 98 1017.3
20210727124916 73 58 3.0 5.0 0.00 0.31 0.01 99 1017.3
20210727124818 73 57 4.0 5.0 0.00 0.31 0.01 98 1017.3
20210727124716 73 348 0.0 5.0 0.00 0.31 0.01 97 1017.3
20210727124616 73 8 1.0 5.0 0.00 0.31 0.01 96 1017.3
20210727124516 72 38 5.0 9.0 0.00 0.31 0.01 98 1017.3
20210727124415 73 356 0.0 0.0 0.00 0.31 0.01 99 1017.3
20210727124318 73 352 2.0 4.0 0.00 0.31 0.01 97 1017.3
20210727124217 73 12 0.0 2.0 0.00 0.31 0.01 100 1017.3
20210727124117 72 355 2.0 3.0 0.00 0.31 0.01 99 1017.3
20210727124019 72 360 1.0 3.0 0.00 0.31 0.01 100 1017.5
20210727123016 71 332 1.0 5.0 0.00 0.31 0.01 100 1017.5
20210727122916 70 45 0.0 4.0 0.00 0.31 0.01 99 1017.3
20210727122816 70 45 0.0 4.0 0.00 0.31 0.01 99 1017.3
20210727122715 71 43 0.0 5.0 0.00 0.31 0.01 100 1017.3
20210727122616 71 30 3.0 7.0 0.00 0.31 0.01 100 1017.3
20210727122518 71 340 1.0 5.0 0.00 0.31 0.01 100 1017.3
20210727122415 70 27 4.0 6.0 0.00 0.31 0.01 99 1017.3
20210727122317 70 27 4.0 6.0 0.00 0.31 0.01 99 1017.3
20210727122216 71 9 3.0 6.0 0.00 0.31 0.01 100 1017.3
20210727122115 71 323 0.0 3.0 0.00 0.31 0.01 100 1017.3
20210727122018 71 3 3.0 6.0 0.00 0.31 0.01 100 1017.5
20210727121917 70 8 3.0 11.0 0.00 0.31 0.01 100 1017.7
20210727121815 69 18 5.0 11.0 0.00 0.31 0.01 99 1017.7
20210727121717 70 18 5.0 11.0 0.00 0.31 0.01 100 1017.7
20210727121617 70 19 3.0 10.0 0.00 0.31 0.01 100 1017.7
20210727120616 70 17 3.0 6.0 0.00 0.31 0.01 100 1018.4
20210727120518 70 29 4.0 9.0 0.00 0.31 0.01 100 1018.4
20210727120418 69 23 4.0 9.0 0.00 0.31 0.01 99 1018.4
20210727120316 70 13 2.0 7.0 0.00 0.31 0.01 100 1018.4
20210727120217 70 17 0.0 0.0 0.00 0.31 0.01 100 1018.4
20210727120118 69 352 0.0 3.0 0.00 0.31 0.01 100 1018.4
20210727120017 69 328 0.0 0.0 0.00 0.31 0.01 100 1018.4
20210727115917 68 49 0.0 0.0 0.00 0.31 0.01 99 1018.4
20210727115818 69 44 0.0 0.0 0.00 0.31 0.01 100 1018.4
20210727115717 69 359 0.0 3.0 0.00 0.31 0.01 100 1018.4
20210727115617 68 330 2.0 5.0 0.00 0.31 0.01 99 1018.4
20210727115516 69 18 1.0 5.0 0.00 0.31 0.01 100 1018.4
20210727115417 68 37 2.0 4.0 0.00 0.31 0.01 99 1018.4
20210727115317 68 39 2.0 4.0 0.00 0.31 0.01 100 1018.4
20210727115218 67 36 2.0 6.0 0.00 0.31 0.01 99 1018.4
20210727115117 68 34 0.0 0.0 0.00 0.31 0.01 100 1018.6
20210727114116 67 313 0.0 2.0 0.00 0.31 0.01 99 1018.8
20210727114018 68 319 0.0 6.0 0.00 0.31 0.01 100 1018.8
20210727113916 67 17 3.0 6.0 0.00 0.31 0.01 100 1018.8
20210727113816 66 352 3.0 5.0 0.00 0.31 0.01 99 1018.8
20210727112816 67 357 1.0 6.0 0.00 0.31 0.01 100 1018.8
20210727112716 67 18 4.0 8.0 0.00 0.31 0.01 100 1018.8
20210727112616 66 7 2.0 4.0 0.00 0.31 0.01 99 1018.8
20210727112517 67 9 2.0 6.0 0.00 0.31 0.01 100 1018.8
20210727112415 67 32 3.0 6.0 0.00 0.31 0.01 100 1018.8
20210727112317 66 353 3.0 7.0 0.00 0.31 0.01 99 1018.8
20210727111318 66 33 4.0 7.0 0.00 0.31 0.01 99 1018.8
20210727111216 67 31 4.0 7.0 0.00 0.31 0.01 100 1018.8
20210727111117 67 34 4.0 12.0 0.00 0.31 0.01 100 1018.8
20210727111015 67 29 3.0 12.0 0.00 0.31 0.01 100 1018.6
20210727110916 67 24 1.0 6.0 0.00 0.31 0.01 100 1018.4
20210727110817 67 1 0.0 0.0 0.00 0.31 0.01 100 1018.4
20210727110717 67 323 1.0 5.0 0.00 0.31 0.01 100 1018.4
20210727110616 67 60 3.0 6.0 0.00 0.31 0.01 100 1018.4
20210727110518 67 315 0.0 2.0 0.00 0.31 0.01 100 1018.4
20210727110317 67 29 3.0 10.0 0.00 0.31 0.01 100 1018.4
20210727110216 66 94 0.0 2.0 0.00 0.31 0.01 99 1018.4
20210727110116 67 4 3.0 6.0 0.00 0.31 0.01 100 1018.4
20210727110017 67 7 2.0 6.0 0.00 0.31 0.01 100 1018.6
20210727105915 67 20 0.0 4.0 0.00 0.31 0.01 100 1018.8
20210727105816 67 346 1.0 6.0 0.00 0.31 0.01 100 1018.8
20210727105716 67 306 2.0 6.0 0.00 0.31 0.01 100 1018.8
20210727105619 66 30 0.0 4.0 0.00 0.31 0.01 99 1018.8
20210727105515 66 30 0.0 4.0 0.00 0.31 0.01 99 1018.8
20210727105417 66 30 0.0 4.0 0.00 0.31 0.01 99 1018.8
20210727105317 67 30 0.0 4.0 0.00 0.31 0.01 100 1018.8
20210727105217 67 70 0.0 4.0 0.00 0.31 0.01 100 1018.8
20210727105118 67 282 0.0 0.0 0.00 0.31 0.01 100 1018.6
20210727105016 66 316 0.0 0.0 0.00 0.31 0.01 99 1018.4
20210727104915 67 351 1.0 5.0 0.00 0.31 0.01 100 1018.4
20210727103916 67 225 0.0 0.0 0.00 0.31 0.01 100 1018.4
20210727103817 67 258 0.0 0.0 0.00 0.31 0.01 100 1018.4
20210727103716 66 292 0.0 0.0 0.00 0.31 0.01 99 1018.4
20210727103615 66 292 0.0 0.0 0.00 0.31 0.01 99 1018.4
20210727103517 66 292 0.0 0.0 0.00 0.31 0.01 99 1018.4
20210727103417 67 292 0.0 0.0 0.00 0.31 0.01 100 1018.4
20210727103315 66 292 0.0 0.0 0.00 0.31 0.01 99 1018.4
20210727103216 66 292 0.0 0.0 0.00 0.31 0.01 99 1018.4
20210727103115 67 292 0.0 0.0 0.00 0.31 0.01 100 1018.4
20210727103019 66 292 0.0 0.0 0.00 0.31 0.01 99 1018.4
20210727102915 67 292 0.0 0.0 0.00 0.31 0.01 100 1018.4
20210727102817 67 294 0.0 0.0 0.00 0.31 0.01 100 1018.4
20210727102716 66 360 0.0 0.0 0.00 0.31 0.01 99 1018.4
20210727102616 67 358 0.0 0.0 0.00 0.31 0.01 100 1018.4
20210727102517 66 358 0.0 0.0 0.00 0.31 0.01 99 1018.4
20210727101516 66 293 0.0 0.0 0.00 0.31 0.01 99 1018.4
20210727101415 66 313 0.0 0.0 0.00 0.31 0.01 99 1018.4
20210727101319 66 313 0.0 0.0 0.00 0.31 0.01 99 1018.4
20210727100416 67 315 0.0 0.0 0.00 0.31 0.01 100 1018.0
20210727100317 67 315 0.0 0.0 0.00 0.31 0.01 100 1018.1
20210727100215 67 322 0.0 0.0 0.00 0.31 0.01 100 1018.1